sensor_id;sensor_type;location;lat;lon;timestamp;pressure;altitude;pressure_sealevel;temperature;humidity
76637;BME280;65532;52.124;5.480;2024-03-08T00:02:17;101933.03;;;1.76;100.00
76637;BME280;65532;52.124;5.480;2024-03-08T00:04:45;101934.84;;;1.76;100.00
76637;BME280;65532;52.124;5.480;2024-03-08T00:07:12;101934.00;;;1.75;100.00
76637;BME280;65532;52.124;5.480;2024-03-08T00:09:39;101922.34;;;1.76;100.00
76637;BME280;65532;52.124;5.480;2024-03-08T00:12:06;101922.59;;;1.73;100.00
76637;BME280;65532;52.124;5.480;2024-03-08T00:14:33;101923.59;;;1.72;100.00
76637;BME280;65532;52.124;5.480;2024-03-08T00:16:59;101927.09;;;1.73;100.00
76637;BME280;65532;52.124;5.480;2024-03-08T00:19:26;101923.06;;;1.69;100.00
76637;BME280;65532;52.124;5.480;2024-03-08T00:21:52;101921.22;;;1.69;100.00
76637;BME280;65532;52.124;5.480;2024-03-08T00:24:19;101916.03;;;1.68;100.00
76637;BME280;65532;52.124;5.480;2024-03-08T00:26:50;101914.66;;;1.64;100.00
76637;BME280;65532;52.124;5.480;2024-03-08T00:29:17;101922.81;;;1.62;100.00
76637;BME280;65532;52.124;5.480;2024-03-08T00:31:43;101921.81;;;1.63;100.00
76637;BME280;65532;52.124;5.480;2024-03-08T00:34:10;101915.94;;;1.60;100.00
76637;BME280;65532;52.124;5.480;2024-03-08T00:36:38;101919.88;;;1.56;100.00
76637;BME280;65532;52.124;5.480;2024-03-08T00:39:05;101914.00;;;1.52;100.00
76637;BME280;65532;52.124;5.480;2024-03-08T00:41:34;101914.97;;;1.51;100.00
76637;BME280;65532;52.124;5.480;2024-03-08T00:44:01;101918.47;;;1.52;100.00
76637;BME280;65532;52.124;5.480;2024-03-08T00:46:30;101909.78;;;1.49;100.00
76637;BME280;65532;52.124;5.480;2024-03-08T00:48:57;101903.06;;;1.45;100.00
76637;BME280;65532;52.124;5.480;2024-03-08T00:51:24;101901.38;;;1.44;100.00
76637;BME280;65532;52.124;5.480;2024-03-08T00:53:51;101903.38;;;1.42;100.00
76637;BME280;65532;52.124;5.480;2024-03-08T00:56:17;101899.28;;;1.38;100.00
76637;BME280;65532;52.124;5.480;2024-03-08T00:58:44;101901.25;;;1.36;100.00
76637;BME280;65532;52.124;5.480;2024-03-08T01:01:13;101892.56;;;1.34;100.00
76637;BME280;65532;52.124;5.480;2024-03-08T01:03:45;101883.19;;;1.30;100.00
76637;BME280;65532;52.124;5.480;2024-03-08T01:06:11;101881.75;;;1.26;100.00
76637;BME280;65532;52.124;5.480;2024-03-08T01:08:38;101875.75;;;1.24;100.00
76637;BME280;65532;52.124;5.480;2024-03-08T01:11:07;101879.38;;;1.23;100.00
76637;BME280;65532;52.124;5.480;2024-03-08T01:13:33;101868.19;;;1.19;100.00
76637;BME280;65532;52.124;5.480;2024-03-08T01:16:00;101867.34;;;1.19;100.00
76637;BME280;65532;52.124;5.480;2024-03-08T01:18:26;101857.66;;;1.18;100.00
76637;BME280;65532;52.124;5.480;2024-03-08T01:20:53;101854.31;;;1.16;100.00
76637;BME280;65532;52.124;5.480;2024-03-08T01:23:19;101856.97;;;1.16;100.00
76637;BME280;65532;52.124;5.480;2024-03-08T01:25:46;101853.75;;;1.12;100.00
76637;BME280;65532;52.124;5.480;2024-03-08T01:28:12;101851.25;;;1.11;100.00
76637;BME280;65532;52.124;5.480;2024-03-08T01:30:39;101845.19;;;1.09;100.00
76637;BME280;65532;52.124;5.480;2024-03-08T01:33:05;101842.81;;;1.06;100.00
76637;BME280;65532;52.124;5.480;2024-03-08T01:35:32;101843.94;;;1.03;100.00
76637;BME280;65532;52.124;5.480;2024-03-08T01:37:58;101836.38;;;0.99;100.00
76637;BME280;65532;52.124;5.480;2024-03-08T01:40:25;101830.50;;;0.95;100.00
76637;BME280;65532;52.124;5.480;2024-03-08T01:42:51;101830.63;;;0.94;100.00
76637;BME280;65532;52.124;5.480;2024-03-08T01:45:20;101828.94;;;0.93;100.00
76637;BME280;65532;52.124;5.480;2024-03-08T01:47:46;101826.56;;;0.89;100.00
76637;BME280;65532;52.124;5.480;2024-03-08T01:50:15;101817.88;;;0.87;100.00
76637;BME280;65532;52.124;5.480;2024-03-08T01:52:42;101821.53;;;0.86;100.00
76637;BME280;65532;52.124;5.480;2024-03-08T01:55:09;101815.50;;;0.84;100.00
76637;BME280;65532;52.124;5.480;2024-03-08T01:57:36;101822.53;;;0.85;100.00
76637;BME280;65532;52.124;5.480;2024-03-08T02:00:05;101816.78;;;0.80;100.00
76637;BME280;65532;52.124;5.480;2024-03-08T02:02:32;101812.72;;;0.76;100.00
76637;BME280;65532;52.124;5.480;2024-03-08T02:05:00;101818.19;;;0.75;100.00
76637;BME280;65532;52.124;5.480;2024-03-08T02:07:27;101812.31;;;0.71;100.00
76637;BME280;65532;52.124;5.480;2024-03-08T02:09:53;101807.13;;;0.70;100.00
76637;BME280;65532;52.124;5.480;2024-03-08T02:12:20;101807.28;;;0.68;100.00
76637;BME280;65532;52.124;5.480;2024-03-08T02:14:47;101797.59;;;0.67;100.00
76637;BME280;65532;52.124;5.480;2024-03-08T02:17:13;101797.91;;;0.64;100.00
76637;BME280;65532;52.124;5.480;2024-03-08T02:19:40;101801.41;;;0.65;100.00
76637;BME280;65532;52.124;5.480;2024-03-08T02:22:07;101798.00;;;0.63;100.00
76637;BME280;65532;52.124;5.480;2024-03-08T02:24:33;101789.06;;;0.64;100.00
76637;BME280;65532;52.124;5.480;2024-03-08T02:27:00;101797.06;;;0.64;100.00
76637;BME280;65532;52.124;5.480;2024-03-08T02:29:27;101789.47;;;0.59;100.00
76637;BME280;65532;52.124;5.480;2024-03-08T02:31:53;101789.91;;;0.54;100.00
76637;BME280;65532;52.124;5.480;2024-03-08T02:34:21;101783.03;;;0.52;100.00
76637;BME280;65532;52.124;5.480;2024-03-08T02:36:48;101785.41;;;0.55;100.00
76637;BME280;65532;52.124;5.480;2024-03-08T02:39:14;101785.72;;;0.52;100.00
76637;BME280;65532;52.124;5.480;2024-03-08T02:41:42;101773.50;;;0.49;100.00
76637;BME280;65532;52.124;5.480;2024-03-08T02:44:09;101767.91;;;0.43;100.00
76637;BME280;65532;52.124;5.480;2024-03-08T02:46:35;101765.53;;;0.40;100.00
76637;BME280;65532;52.124;5.480;2024-03-08T02:49:02;101765.53;;;0.40;100.00
76637;BME280;65532;52.124;5.480;2024-03-08T02:51:29;101764.97;;;0.36;100.00
76637;BME280;65532;52.124;5.480;2024-03-08T02:53:55;101755.59;;;0.32;100.00
76637;BME280;65532;52.124;5.480;2024-03-08T02:56:22;101755.72;;;0.30;100.00
76637;BME280;65532;52.124;5.480;2024-03-08T02:58:48;101749.41;;;0.32;100.00
76637;BME280;65532;52.124;5.480;2024-03-08T03:01:15;101753.78;;;0.33;100.00
76637;BME280;65532;52.124;5.480;2024-03-08T03:03:42;101752.34;;;0.28;100.00
76637;BME280;65532;52.124;5.480;2024-03-08T03:06:09;101749.00;;;0.26;100.00
76637;BME280;65532;52.124;5.480;2024-03-08T03:08:36;101742.28;;;0.22;100.00
76637;BME280;65532;52.124;5.480;2024-03-08T03:11:02;101744.25;;;0.20;100.00
76637;BME280;65532;52.124;5.480;2024-03-08T03:13:29;101743.97;;;0.23;100.00
76637;BME280;65532;52.124;5.480;2024-03-08T03:15:56;101739.63;;;0.22;100.00
76637;BME280;65532;52.124;5.480;2024-03-08T03:18:24;101740.59;;;0.21;100.00
76637;BME280;65532;52.124;5.480;2024-03-08T03:20:52;101738.38;;;0.17;100.00
76637;BME280;65532;52.124;5.480;2024-03-08T03:23:19;101733.88;;;0.17;100.00
76637;BME280;65532;52.124;5.480;2024-03-08T03:25:47;101729.41;;;0.18;100.00
76637;BME280;65532;52.124;5.480;2024-03-08T03:28:14;101725.47;;;0.22;100.00
76637;BME280;65532;52.124;5.480;2024-03-08T03:30:45;101729.13;;;0.21;100.00
76637;BME280;65532;52.124;5.480;2024-03-08T03:33:12;101720.97;;;0.22;100.00
76637;BME280;65532;52.124;5.480;2024-03-08T03:35:41;101715.94;;;0.19;100.00
76637;BME280;65532;52.124;5.480;2024-03-08T03:38:09;101721.28;;;0.19;100.00
76637;BME280;65532;52.124;5.480;2024-03-08T03:40:38;101721.56;;;0.16;100.00
76637;BME280;65532;52.124;5.480;2024-03-08T03:43:05;101722.41;;;0.17;100.00
76637;BME280;65532;52.124;5.480;2024-03-08T03:45:32;101720.44;;;0.19;100.00
76637;BME280;65532;52.124;5.480;2024-03-08T03:48:06;101713.00;;;0.22;100.00
76637;BME280;65532;52.124;5.480;2024-03-08T03:50:34;101722.66;;;0.23;100.00
76637;BME280;65532;52.124;5.480;2024-03-08T03:53:02;101712.31;;;0.20;100.00
76637;BME280;65532;52.124;5.480;2024-03-08T03:55:29;101714.28;;;0.18;100.00
76637;BME280;65532;52.124;5.480;2024-03-08T03:57:56;101715.94;;;0.19;100.00
76637;BME280;65532;52.124;5.480;2024-03-08T04:00:22;101713.97;;;0.21;100.00
76637;BME280;65532;52.124;5.480;2024-03-08T04:02:49;101711.03;;;0.24;100.00
76637;BME280;65532;52.124;5.480;2024-03-08T04:05:16;101709.50;;;0.22;100.00
76637;BME280;65532;52.124;5.480;2024-03-08T04:07:43;101707.81;;;0.21;100.00
76637;BME280;65532;52.124;5.480;2024-03-08T04:10:11;101712.00;;;0.23;100.00
76637;BME280;65532;52.124;5.480;2024-03-08T04:12:38;101705.00;;;0.22;100.00
76637;BME280;65532;52.124;5.480;2024-03-08T04:15:04;101710.47;;;0.21;100.00
76637;BME280;65532;52.124;5.480;2024-03-08T04:17:34;101694.66;;;0.19;100.00
76637;BME280;65532;52.124;5.480;2024-03-08T04:20:04;101701.94;;;0.17;100.00
76637;BME280;65532;52.124;5.480;2024-03-08T04:22:38;101702.78;;;0.18;100.00
76637;BME280;65532;52.124;5.480;2024-03-08T04:25:06;101690.31;;;0.18;100.00
76637;BME280;65532;52.124;5.480;2024-03-08T04:27:33;101696.31;;;0.20;100.00
76637;BME280;65532;52.124;5.480;2024-03-08T04:30:01;101689.31;;;0.19;100.00
76637;BME280;65532;52.124;5.480;2024-03-08T04:32:28;101692.97;;;0.18;100.00
76637;BME280;65532;52.124;5.480;2024-03-08T04:34:56;101689.63;;;0.16;100.00
76637;BME280;65532;52.124;5.480;2024-03-08T04:37:23;101687.91;;;0.15;100.00
76637;BME280;65532;52.124;5.480;2024-03-08T04:39:50;101686.97;;;0.16;100.00
76637;BME280;65532;52.124;5.480;2024-03-08T04:42:17;101683.56;;;0.14;100.00
76637;BME280;65532;52.124;5.480;2024-03-08T04:44:44;101683.56;;;0.14;100.00
76637;BME280;65532;52.124;5.480;2024-03-08T04:47:11;101680.91;;;0.14;100.00
76637;BME280;65532;52.124;5.480;2024-03-08T04:49:38;101684.56;;;0.13;100.00
76637;BME280;65532;52.124;5.480;2024-03-08T04:52:05;101680.06;;;0.14;100.00
76637;BME280;65532;52.124;5.480;2024-03-08T04:54:31;101672.22;;;0.12;100.00
76637;BME280;65532;52.124;5.480;2024-03-08T04:56:58;101677.00;;;0.09;100.00
76637;BME280;65532;52.124;5.480;2024-03-08T04:59:27;101674.47;;;0.07;100.00
76637;BME280;65532;52.124;5.480;2024-03-08T05:01:54;101673.78;;;0.05;100.00
76637;BME280;65532;52.124;5.480;2024-03-08T05:04:20;101673.09;;;0.03;100.00
76637;BME280;65532;52.124;5.480;2024-03-08T05:06:47;101674.09;;;0.02;100.00
76637;BME280;65532;52.124;5.480;2024-03-08T05:09:14;101673.66;;;-0.03;100.00
76637;BME280;65532;52.124;5.480;2024-03-08T05:11:43;101670.28;;;-0.05;100.00
76637;BME280;65532;52.124;5.480;2024-03-08T05:14:11;101675.63;;;-0.05;100.00
76637;BME280;65532;52.124;5.480;2024-03-08T05:16:39;101671.13;;;-0.05;100.00
76637;BME280;65532;52.124;5.480;2024-03-08T05:19:06;101676.44;;;-0.05;100.00
76637;BME280;65532;52.124;5.480;2024-03-08T05:21:33;101669.59;;;-0.07;100.00
76637;BME280;65532;52.124;5.480;2024-03-08T05:23:59;101672.25;;;-0.07;100.00
76637;BME280;65532;52.124;5.480;2024-03-08T05:26:26;101667.22;;;-0.10;100.00
76637;BME280;65532;52.124;5.480;2024-03-08T05:28:52;101666.53;;;-0.12;100.00
76637;BME280;65532;52.124;5.480;2024-03-08T05:31:22;101659.38;;;-0.12;100.00
76637;BME280;65532;52.124;5.480;2024-03-08T05:33:49;101665.84;;;-0.14;100.00
76637;BME280;65532;52.124;5.480;2024-03-08T05:36:16;101671.31;;;-0.16;100.00
76637;BME280;65532;52.124;5.480;2024-03-08T05:38:43;101662.44;;;-0.16;100.00
76637;BME280;65532;52.124;5.480;2024-03-08T05:41:10;101661.91;;;-0.20;100.00
76637;BME280;65532;52.124;5.480;2024-03-08T05:43:40;101659.94;;;-0.18;100.00
76637;BME280;65532;52.124;5.480;2024-03-08T05:46:07;101655.19;;;-0.14;100.00
76637;BME280;65532;52.124;5.480;2024-03-08T05:48:33;101652.53;;;-0.14;100.00
76637;BME280;65532;52.124;5.480;2024-03-08T05:51:00;101650.84;;;-0.15;100.00
76637;BME280;65532;52.124;5.480;2024-03-08T05:53:29;101651.69;;;-0.15;100.00
76637;BME280;65532;52.124;5.480;2024-03-08T05:55:58;101649.03;;;-0.15;100.00
76637;BME280;65532;52.124;5.480;2024-03-08T05:58:25;101642.88;;;-0.15;100.00
76637;BME280;65532;52.124;5.480;2024-03-08T06:00:52;101634.16;;;-0.17;100.00
76637;BME280;65532;52.124;5.480;2024-03-08T06:03:19;101643.97;;;-0.18;100.00
76637;BME280;65532;52.124;5.480;2024-03-08T06:05:48;101634.44;;;-0.20;100.00
76637;BME280;65532;52.124;5.480;2024-03-08T06:08:16;101631.66;;;-0.19;100.00
76637;BME280;65532;52.124;5.480;2024-03-08T06:10:42;101632.47;;;-0.18;100.00
76637;BME280;65532;52.124;5.480;2024-03-08T06:13:09;101631.66;;;-0.19;100.00
76637;BME280;65532;52.124;5.480;2024-03-08T06:15:38;101631.78;;;-0.20;100.00
76637;BME280;65532;52.124;5.480;2024-03-08T06:18:05;101636.13;;;-0.19;100.00
76637;BME280;65532;52.124;5.480;2024-03-08T06:20:32;101640.47;;;-0.18;100.00
76637;BME280;65532;52.124;5.480;2024-03-08T06:22:59;101637.56;;;-0.15;100.00
76637;BME280;65532;52.124;5.480;2024-03-08T06:25:26;101623.25;;;-0.14;100.00
76637;BME280;65532;52.124;5.480;2024-03-08T06:27:52;101633.63;;;-0.11;100.00
76637;BME280;65532;52.124;5.480;2024-03-08T06:30:19;101626.63;;;-0.12;100.00
76637;BME280;65532;52.124;5.480;2024-03-08T06:32:47;101631.34;;;-0.06;100.00
76637;BME280;65532;52.124;5.480;2024-03-08T06:35:14;101631.06;;;-0.03;100.00
76637;BME280;65532;52.124;5.480;2024-03-08T06:37:42;101628.16;;;0.00;100.00
76637;BME280;65532;52.124;5.480;2024-03-08T06:40:11;101625.19;;;0.03;100.00
76637;BME280;65532;52.124;5.480;2024-03-08T06:42:41;101619.56;;;0.06;100.00
76637;BME280;65532;52.124;5.480;2024-03-08T06:45:08;101618.75;;;0.06;100.00
76637;BME280;65532;52.124;5.480;2024-03-08T06:47:36;101611.59;;;0.06;100.00
76637;BME280;65532;52.124;5.480;2024-03-08T06:50:04;101616.31;;;0.12;100.00
76637;BME280;65532;52.124;5.480;2024-03-08T06:52:30;101618.69;;;0.15;100.00
76637;BME280;65532;52.124;5.480;2024-03-08T06:54:57;101612.97;;;0.20;100.00
76637;BME280;65532;52.124;5.480;2024-03-08T06:57:24;101616.31;;;0.22;100.00
76637;BME280;65532;52.124;5.480;2024-03-08T06:59:51;101614.19;;;0.25;100.00
76637;BME280;65532;52.124;5.480;2024-03-08T07:02:18;101618.81;;;0.33;100.00
76637;BME280;65532;52.124;5.480;2024-03-08T07:04:45;101615.41;;;0.41;100.00
76637;BME280;65532;52.124;5.480;2024-03-08T07:07:11;101617.75;;;0.44;100.00
76637;BME280;65532;52.124;5.480;2024-03-08T07:09:38;101612.88;;;0.49;100.00
76637;BME280;65532;52.124;5.480;2024-03-08T07:12:05;101617.44;;;0.56;100.00
76637;BME280;65532;52.124;5.480;2024-03-08T07:14:32;101609.69;;;0.63;100.00
76637;BME280;65532;52.124;5.480;2024-03-08T07:16:59;101613.47;;;0.70;100.00
76637;BME280;65532;52.124;5.480;2024-03-08T07:19:27;101608.34;;;0.77;100.00
76637;BME280;65532;52.124;5.480;2024-03-08T07:21:54;101609.16;;;0.87;100.00
76637;BME280;65532;52.124;5.480;2024-03-08T07:24:21;101613.72;;;0.95;100.00
76637;BME280;65532;52.124;5.480;2024-03-08T07:27:04;101604.34;;;1.36;100.00
76637;BME280;65532;52.124;5.480;2024-03-08T07:29:32;101603.44;;;2.75;100.00
76637;BME280;65532;52.124;5.480;2024-03-08T07:31:59;101593.59;;;3.50;100.00
76637;BME280;65532;52.124;5.480;2024-03-08T07:34:28;101590.06;;;3.90;100.00
76637;BME280;65532;52.124;5.480;2024-03-08T07:36:58;101587.97;;;4.33;100.00
76637;BME280;65532;52.124;5.480;2024-03-08T07:39:25;101584.53;;;4.55;98.08
76637;BME280;65532;52.124;5.480;2024-03-08T07:41:52;101583.31;;;4.74;96.19
76637;BME280;65532;52.124;5.480;2024-03-08T07:44:19;101585.41;;;5.18;95.17
76637;BME280;65532;52.124;5.480;2024-03-08T07:46:46;101580.16;;;5.47;90.29
76637;BME280;65532;52.124;5.480;2024-03-08T07:49:12;101571.84;;;5.80;88.15
76637;BME280;65532;52.124;5.480;2024-03-08T07:51:40;101576.34;;;5.64;86.48
76637;BME280;65532;52.124;5.480;2024-03-08T07:54:07;101571.06;;;5.94;86.03
76637;BME280;65532;52.124;5.480;2024-03-08T07:56:36;101568.31;;;6.02;83.73
76637;BME280;65532;52.124;5.480;2024-03-08T07:59:04;101569.63;;;5.83;82.94
76637;BME280;65532;52.124;5.480;2024-03-08T08:01:30;101568.94;;;5.66;82.72
76637;BME280;65532;52.124;5.480;2024-03-08T08:03:58;101562.56;;;5.82;81.78
76637;BME280;65532;52.124;5.480;2024-03-08T08:06:24;101555.31;;;5.68;82.29
76637;BME280;65532;52.124;5.480;2024-03-08T08:08:51;101553.72;;;5.59;82.85
76637;BME280;65532;52.124;5.480;2024-03-08T08:11:18;101553.72;;;5.96;82.36
76637;BME280;65532;52.124;5.480;2024-03-08T08:13:44;101554.78;;;6.25;81.61
76637;BME280;65532;52.124;5.480;2024-03-08T08:16:11;101557.94;;;6.28;78.25
76637;BME280;65532;52.124;5.480;2024-03-08T08:18:39;101551.72;;;6.13;80.24
76637;BME280;65532;52.124;5.480;2024-03-08T08:21:07;101551.00;;;6.34;79.00
76637;BME280;65532;52.124;5.480;2024-03-08T08:23:33;101550.25;;;6.40;78.28
76637;BME280;65532;52.124;5.480;2024-03-08T08:26:00;101551.91;;;6.26;78.10
76637;BME280;65532;52.124;5.480;2024-03-08T08:28:29;101544.03;;;6.10;77.36
76637;BME280;65532;52.124;5.480;2024-03-08T08:30:57;101544.22;;;6.53;77.15
76637;BME280;65532;52.124;5.480;2024-03-08T08:33:23;101544.78;;;6.34;76.57
76637;BME280;65532;52.124;5.480;2024-03-08T08:35:51;101534.19;;;6.47;76.93
76637;BME280;65532;52.124;5.480;2024-03-08T08:38:20;101525.19;;;6.90;76.51
76637;BME280;65532;52.124;5.480;2024-03-08T08:40:46;101520.97;;;7.24;73.28
76637;BME280;65532;52.124;5.480;2024-03-08T08:43:13;101533.00;;;6.05;73.04
76637;BME280;65532;52.124;5.480;2024-03-08T08:45:40;101524.78;;;5.46;77.09
76637;BME280;65532;52.124;5.480;2024-03-08T08:48:07;101519.31;;;5.17;79.34
76637;BME280;65532;52.124;5.480;2024-03-08T08:50:33;101518.00;;;5.13;81.31
76637;BME280;65532;52.124;5.480;2024-03-08T08:53:00;101511.44;;;4.92;82.09
76637;BME280;65532;52.124;5.480;2024-03-08T08:55:26;101517.41;;;4.71;83.39
76637;BME280;65532;52.124;5.480;2024-03-08T08:57:53;101511.84;;;4.81;84.22
76637;BME280;65532;52.124;5.480;2024-03-08T09:00:20;101506.66;;;5.02;83.60
76637;BME280;65532;52.124;5.480;2024-03-08T09:02:47;101508.81;;;5.53;84.68
76637;BME280;65532;52.124;5.480;2024-03-08T09:05:17;101499.75;;;5.68;83.64
76637;BME280;65532;52.124;5.480;2024-03-08T09:07:44;101504.28;;;5.83;81.98
76637;BME280;65532;52.124;5.480;2024-03-08T09:10:14;101493.88;;;5.50;82.51
76637;BME280;65532;52.124;5.480;2024-03-08T09:12:44;101487.03;;;5.62;84.68
76637;BME280;65532;52.124;5.480;2024-03-08T09:15:11;101494.53;;;5.67;82.55
76637;BME280;65532;52.124;5.480;2024-03-08T09:17:39;101485.31;;;5.32;82.79
76637;BME280;65532;52.124;5.480;2024-03-08T09:20:10;101486.66;;;5.51;83.43
76637;BME280;65532;52.124;5.480;2024-03-08T09:22:44;101481.69;;;5.62;83.18
76637;BME280;65532;52.124;5.480;2024-03-08T09:25:11;101481.09;;;5.52;81.93
76637;BME280;65532;52.124;5.480;2024-03-08T09:27:38;101476.88;;;5.72;82.68
76637;BME280;65532;52.124;5.480;2024-03-08T09:30:06;101471.69;;;5.71;82.66
76637;BME280;65532;52.124;5.480;2024-03-08T09:32:33;101469.94;;;5.78;82.96
76637;BME280;65532;52.124;5.480;2024-03-08T09:35:00;101460.44;;;6.05;82.30
76637;BME280;65532;52.124;5.480;2024-03-08T09:37:27;101455.31;;;6.25;81.04
76637;BME280;65532;52.124;5.480;2024-03-08T09:39:54;101454.22;;;6.05;81.04
76637;BME280;65532;52.124;5.480;2024-03-08T09:42:20;101453.88;;;6.44;82.62
76637;BME280;65532;52.124;5.480;2024-03-08T09:44:47;101444.84;;;6.87;81.62
76637;BME280;65532;52.124;5.480;2024-03-08T09:47:14;101447.66;;;6.79;79.93
76637;BME280;65532;52.124;5.480;2024-03-08T09:49:41;101435.72;;;6.88;78.72
76637;BME280;65532;52.124;5.480;2024-03-08T09:52:10;101430.31;;;6.46;77.73
76637;BME280;65532;52.124;5.480;2024-03-08T09:54:39;101426.00;;;6.66;78.85
76637;BME280;65532;52.124;5.480;2024-03-08T09:57:10;101425.75;;;6.82;77.90
76637;BME280;65532;52.124;5.480;2024-03-08T09:59:37;101414.06;;;6.54;77.83
76637;BME280;65532;52.124;5.480;2024-03-08T10:02:03;101412.31;;;6.46;77.77
76637;BME280;65532;52.124;5.480;2024-03-08T10:04:31;101419.59;;;6.88;79.26
76637;BME280;65532;52.124;5.480;2024-03-08T10:07:01;101403.53;;;7.23;77.91
76637;BME280;65532;52.124;5.480;2024-03-08T10:09:27;101404.16;;;7.25;77.32
76637;BME280;65532;52.124;5.480;2024-03-08T10:11:57;101405.34;;;7.16;77.21
76637;BME280;65532;52.124;5.480;2024-03-08T10:14:27;101388.41;;;7.22;77.43
76637;BME280;65532;52.124;5.480;2024-03-08T10:16:54;101391.00;;;7.37;77.04
76637;BME280;65532;52.124;5.480;2024-03-08T10:19:27;101377.00;;;7.55;77.15
76637;BME280;65532;52.124;5.480;2024-03-08T10:21:54;101382.72;;;7.38;76.81
76637;BME280;65532;52.124;5.480;2024-03-08T10:24:23;101373.59;;;7.39;77.23
76637;BME280;65532;52.124;5.480;2024-03-08T10:26:53;101374.50;;;7.88;78.01
76637;BME280;65532;52.124;5.480;2024-03-08T10:29:24;101361.94;;;8.08;77.58
76637;BME280;65532;52.124;5.480;2024-03-08T10:31:51;101355.59;;;8.35;71.44
76637;BME280;65532;52.124;5.480;2024-03-08T10:34:18;101355.66;;;7.94;72.49
76637;BME280;65532;52.124;5.480;2024-03-08T10:36:50;101354.94;;;8.27;73.48
76637;BME280;65532;52.124;5.480;2024-03-08T10:39:22;101355.59;;;8.35;73.52
76637;BME280;65532;52.124;5.480;2024-03-08T10:41:58;101348.28;;;8.16;73.49
76637;BME280;65532;52.124;5.480;2024-03-08T10:49:54;101335.03;;;8.28;71.56
76637;BME280;65532;52.124;5.480;2024-03-08T10:52:21;101329.63;;;8.21;72.77
76637;BME280;65532;52.124;5.480;2024-03-08T10:54:49;101320.09;;;8.25;73.38
76637;BME280;65532;52.124;5.480;2024-03-08T10:57:18;101326.31;;;8.26;72.15
76637;BME280;65532;52.124;5.480;2024-03-08T10:59:47;101318.50;;;8.51;71.90
76637;BME280;65532;52.124;5.480;2024-03-08T11:02:16;101314.34;;;8.61;69.93
76637;BME280;65532;52.124;5.480;2024-03-08T11:04:49;101299.19;;;8.40;67.63
76637;BME280;65532;52.124;5.480;2024-03-08T11:07:16;101293.59;;;8.42;70.50
76637;BME280;65532;52.124;5.480;2024-03-08T11:09:49;101289.63;;;8.51;70.03
76637;BME280;65532;52.124;5.480;2024-03-08T11:12:25;101284.03;;;8.46;69.04
76637;BME280;65532;52.124;5.480;2024-03-08T11:14:58;101279.00;;;8.30;69.45
76637;BME280;65532;52.124;5.480;2024-03-08T11:17:40;101278.00;;;8.51;69.23
76637;BME280;65532;52.124;5.480;2024-03-08T11:20:16;101272.84;;;8.62;69.73
76637;BME280;65532;52.124;5.480;2024-03-08T11:22:55;101261.00;;;8.90;71.64
76637;BME280;65532;52.124;5.480;2024-03-08T11:25:40;101266.38;;;8.90;68.86
76637;BME280;65532;52.124;5.480;2024-03-08T11:28:19;101252.50;;;8.86;67.99
76637;BME280;65532;52.124;5.480;2024-03-08T11:33:39;101245.78;;;9.15;67.38
76637;BME280;65532;52.124;5.480;2024-03-08T11:36:10;101227.44;;;9.30;67.43
76637;BME280;65532;52.124;5.480;2024-03-08T11:38:44;101225.44;;;9.57;65.28
76637;BME280;65532;52.124;5.480;2024-03-08T11:41:10;101227.41;;;9.82;64.60
76637;BME280;65532;52.124;5.480;2024-03-08T11:43:44;101196.91;;;9.68;64.38
76637;BME280;65532;52.124;5.480;2024-03-08T11:46:12;101206.22;;;9.79;64.38
76637;BME280;65532;52.124;5.480;2024-03-08T11:48:42;101198.94;;;9.79;64.20
76637;BME280;65532;52.124;5.480;2024-03-08T11:51:14;101203.84;;;9.96;64.06
76637;BME280;65532;52.124;5.480;2024-03-08T11:53:41;101195.09;;;9.94;64.11
76637;BME280;65532;52.124;5.480;2024-03-08T11:56:13;101192.59;;;9.92;61.91
76637;BME280;65532;52.124;5.480;2024-03-08T11:58:41;101195.59;;;9.77;60.62
76637;BME280;65532;52.124;5.480;2024-03-08T12:01:09;101184.31;;;9.87;62.12
76637;BME280;65532;52.124;5.480;2024-03-08T12:03:40;101184.19;;;10.07;60.99
76637;BME280;65532;52.124;5.480;2024-03-08T12:06:10;101179.13;;;10.17;62.40
76637;BME280;65532;52.124;5.480;2024-03-08T12:08:36;101180.47;;;10.58;62.53
76637;BME280;65532;52.124;5.480;2024-03-08T12:11:07;101184.00;;;10.33;59.91
76637;BME280;65532;52.124;5.480;2024-03-08T12:13:34;101172.16;;;10.03;58.75
76637;BME280;65532;52.124;5.480;2024-03-08T12:16:04;101171.19;;;9.90;59.55
76637;BME280;65532;52.124;5.480;2024-03-08T12:18:35;101164.81;;;10.10;60.30
76637;BME280;65532;52.124;5.480;2024-03-08T12:21:08;101160.97;;;9.93;58.77
76637;BME280;65532;52.124;5.480;2024-03-08T12:23:35;101158.19;;;10.06;59.95
76637;BME280;65532;52.124;5.480;2024-03-08T12:26:15;101149.94;;;10.19;59.27
76637;BME280;65532;52.124;5.480;2024-03-08T12:28:44;101149.44;;;10.35;59.15
76637;BME280;65532;52.124;5.480;2024-03-08T12:31:17;101134.28;;;10.53;58.59
76637;BME280;65532;52.124;5.480;2024-03-08T12:36:16;101136.81;;;9.98;58.62
76637;BME280;65532;52.124;5.480;2024-03-08T12:38:47;101133.56;;;10.14;58.97
76637;BME280;65532;52.124;5.480;2024-03-08T12:41:20;101123.53;;;9.96;57.53
76637;BME280;65532;52.124;5.480;2024-03-08T12:43:48;101139.69;;;10.03;58.67
76637;BME280;65532;52.124;5.480;2024-03-08T12:46:18;101132.41;;;10.03;58.95
76637;BME280;65532;52.124;5.480;2024-03-08T12:48:48;101117.50;;;10.19;58.90
76637;BME280;65532;52.124;5.480;2024-03-08T12:51:17;101115.94;;;10.05;58.23
76637;BME280;65532;52.124;5.480;2024-03-08T12:53:45;101105.56;;;10.02;59.20
76637;BME280;65532;52.124;5.480;2024-03-08T12:56:13;101107.59;;;10.06;59.08
76637;BME280;65532;52.124;5.480;2024-03-08T12:58:43;101107.59;;;10.06;57.80
76637;BME280;65532;52.124;5.480;2024-03-08T13:01:10;101106.50;;;10.14;58.09
76637;BME280;65532;52.124;5.480;2024-03-08T13:03:39;101093.94;;;10.26;58.87
76637;BME280;65532;52.124;5.480;2024-03-08T13:06:06;101098.56;;;10.44;57.70
76637;BME280;65532;52.124;5.480;2024-03-08T13:08:36;101090.88;;;10.16;57.30